This is the latest recevied weather packets stored in our database for station/object DB0ADS-6. If no packets are shown the sender has not sent any weather packets the latest 10 day(s).
| Time | Temp. | Humidity | Pressure | Rain* | Wind** | Luminosity | Snow |
|---|---|---|---|---|---|---|---|
| 1777977051 | 20° C | 51% | 1005.7 hPa | 0 mm | - | - | - |
| 1777976749 | 20.56° C | 50% | 1005.8 hPa | 0 mm | - | - | - |
| 1777976447 | 20.56° C | 50% | 1005.8 hPa | 0 mm | - | - | - |
| 1777976145 | 20.56° C | 50% | 1005.9 hPa | 0 mm | - | - | - |
| 1777975844 | 20.56° C | 51% | 1005.9 hPa | 0 mm | - | - | - |
| 1777975541 | 20.56° C | 49% | 1005.9 hPa | 0 mm | - | - | - |
| 1777975240 | 21.11° C | 49% | 1005.9 hPa | 0 mm | - | - | - |
| 1777974938 | 20.56° C | 51% | 1006 hPa | 0 mm | - | - | - |
| 1777974636 | 20.56° C | 53% | 1006 hPa | 0 mm | - | - | - |
| 1777974334 | 20° C | 53% | 1006.1 hPa | 0 mm | - | - | - |
| 1777974053 | 20.56° C | 53% | 1006.2 hPa | 0 mm | - | - | - |
| 1777973730 | 20.56° C | 53% | 1006.2 hPa | 0 mm | - | - | - |
| 1777973452 | 20.56° C | 53% | 1006.3 hPa | 0 mm | - | - | - |
| 1777973127 | 20.56° C | 56% | 1006.4 hPa | 0 mm | - | - | - |
| 1777972826 | 20.56° C | 55% | 1006.5 hPa | 0 mm | - | - | - |
| 1777972524 | 20° C | 56% | 1006.5 hPa | 0 mm | - | - | - |
| 1777972222 | 18.89° C | 58% | 1006.5 hPa | 0 mm | - | - | - |
| 1777971920 | 19.44° C | 56% | 1006.6 hPa | 0 mm | - | - | - |
| 1777971618 | 20° C | 54% | 1006.6 hPa | 0 mm | - | - | - |
| 1777971337 | 19.44° C | 55% | 1006.6 hPa | 0 mm | - | - | - |
| 1777971075 | 20° C | 57% | 1006.6 hPa | 0 mm | - | - | - |
| 1777970773 | 19.44° C | 60% | 1006.6 hPa | 0 mm | - | - | - |
| 1777970472 | 19.44° C | 60% | 1006.6 hPa | 0 mm | - | - | - |
| 1777970170 | 20° C | 59% | 1006.7 hPa | 0 mm | - | - | - |
| 1777969868 | 18.89° C | 61% | 1006.8 hPa | 0 mm | - | - | - |
* Rain latest hour (hover to see other rain measurements)
** Current wind speed in m/s (hover to see current wind gust speed)